Time;durP1;ratioP1;P1;durP2;ratioP2;P2;SDS_P1;SDS_P2;PMS_P1;PMS_P2;Temp;Humidity;BMP_temperature;BMP_pressure;BME280_temperature;BME280_humidity;BME280_pressure;Samples;Min_cycle;Max_cycle;Signal;HPM_P1;HPM_P2
2023/07/29 00:01:37;;;;;;;7.30;4.90;;;;;;;17.01;100.00;100544.41;109580;1243;69993;-68
2023/07/29 00:04:05;;;;;;;7.90;4.70;;;;;;;16.92;100.00;100544.85;109689;1242;74336;-68
2023/07/29 00:06:35;;;;;;;7.80;4.90;;;;;;;16.87;100.00;100547.08;109705;1244;57713;-67
2023/07/29 00:09:04;;;;;;;9.80;4.80;;;;;;;16.89;100.00;100545.70;109592;1246;57180;-67
2023/07/29 00:11:33;;;;;;;7.90;4.80;;;;;;;16.81;100.00;100546.34;109676;1242;72344;-67
2023/07/29 00:14:02;;;;;;;9.60;5.00;;;;;;;16.75;100.00;100546.92;109710;1243;61883;-67
2023/07/29 00:16:31;;;;;;;6.80;4.80;;;;;;;16.67;100.00;100549.27;109675;1243;59004;-67
2023/07/29 00:19:00;;;;;;;7.70;4.80;;;;;;;16.59;100.00;100547.50;109582;1243;63065;-66
2023/07/29 00:21:29;;;;;;;7.30;4.60;;;;;;;16.52;100.00;100548.50;109622;1244;61863;-67
2023/07/29 00:23:57;;;;;;;9.30;4.60;;;;;;;16.43;100.00;100546.79;109680;1242;57234;-66
2023/07/29 00:26:28;;;;;;;7.70;4.90;;;;;;;16.38;100.00;100544.80;109676;1244;61996;-68
2023/07/29 00:28:59;;;;;;;8.90;5.10;;;;;;;16.56;100.00;100538.65;109585;1244;72024;-67
2023/07/29 00:31:28;;;;;;;7.00;4.60;;;;;;;16.60;100.00;100539.30;109652;1242;70653;-69
2023/07/29 00:33:58;;;;;;;7.30;4.90;;;;;;;16.58;100.00;100535.92;109618;1242;63400;-68
2023/07/29 00:36:27;;;;;;;8.30;5.00;;;;;;;16.50;100.00;100537.45;109497;1245;63073;-68
2023/07/29 00:38:57;;;;;;;7.60;5.00;;;;;;;16.40;100.00;100542.68;109682;1243;60569;-68
2023/07/29 00:41:26;;;;;;;9.90;5.70;;;;;;;16.32;100.00;100541.72;109579;1243;74190;-67
2023/07/29 00:43:54;;;;;;;9.10;4.80;;;;;;;16.29;100.00;100545.55;109489;1243;72435;-68
2023/07/29 00:46:24;;;;;;;8.70;4.00;;;;;;;16.21;100.00;100545.32;109523;1242;59521;-68
2023/07/29 00:48:53;;;;;;;8.00;5.20;;;;;;;16.16;100.00;100541.35;109430;1247;62247;-68
2023/07/29 00:51:24;;;;;;;6.90;4.50;;;;;;;16.13;100.00;100543.21;109525;1245;57152;-67
2023/07/29 00:53:53;;;;;;;8.40;5.30;;;;;;;16.10;100.00;100547.16;109487;1243;57687;-68
2023/07/29 00:56:22;;;;;;;11.60;4.90;;;;;;;16.11;100.00;100545.55;109472;1243;61960;-68
2023/07/29 00:58:58;;;;;;;10.80;5.20;;;;;;;16.11;100.00;100546.36;109634;1243;71957;-68
2023/07/29 01:01:29;;;;;;;12.00;5.20;;;;;;;16.08;100.00;100541.44;109424;1241;61257;-68
2023/07/29 01:03:58;;;;;;;9.60;4.70;;;;;;;16.02;100.00;100535.16;109664;1244;72860;-68
2023/07/29 01:06:46;;;;;;;7.10;4.80;;;;;;;16.00;100.00;100538.77;109619;1244;57712;-68
2023/07/29 01:09:30;;;;;;;9.30;5.60;;;;;;;16.01;100.00;100537.25;109648;1241;60915;-68
2023/07/29 01:12:17;;;;;;;9.80;5.50;;;;;;;16.18;100.00;100538.77;109520;1246;63186;-68
2023/07/29 01:15:13;;;;;;;10.10;5.00;;;;;;;16.33;100.00;100541.27;109724;1241;60642;-68
2023/07/29 01:17:59;;;;;;;8.30;4.90;;;;;;;16.28;100.00;100540.50;109699;1241;69592;-68
2023/07/29 01:20:31;;;;;;;8.40;5.30;;;;;;;16.26;100.00;100544.83;109717;1241;74330;-68
2023/07/29 01:22:59;;;;;;;11.00;5.20;;;;;;;16.27;100.00;100541.54;109568;1241;62729;-68
2023/07/29 01:25:28;;;;;;;7.60;5.10;;;;;;;16.22;100.00;100538.80;109644;1244;57378;-68
2023/07/29 01:27:58;;;;;;;7.70;5.00;;;;;;;16.16;100.00;100539.21;109721;1241;62951;-68
2023/07/29 01:30:37;;;;;;;9.50;5.00;;;;;;;16.08;100.00;100536.30;109815;1241;71283;-68
2023/07/29 01:33:24;;;;;;;6.80;5.00;;;;;;;16.05;100.00;100536.97;109565;1241;60122;-68
2023/07/29 01:36:08;;;;;;;7.00;4.90;;;;;;;16.12;100.00;100540.66;109619;1244;63034;-66
2023/07/29 01:38:40;;;;;;;9.50;5.40;;;;;;;16.13;100.00;100540.71;109528;1241;57577;-66
2023/07/29 01:41:10;;;;;;;7.10;5.10;;;;;;;16.15;100.00;100540.05;109653;1244;57809;-67
2023/07/29 01:43:43;;;;;;;8.50;5.30;;;;;;;16.18;100.00;100541.54;109645;1241;72465;-69
2023/07/29 01:46:15;;;;;;;8.90;5.50;;;;;;;16.20;100.00;100543.39;109736;1241;72364;-67
2023/07/29 01:48:44;;;;;;;9.30;5.30;;;;;;;16.24;100.00;100543.21;109548;1241;70135;-67
2023/07/29 01:51:14;;;;;;;7.40;5.50;;;;;;;16.30;100.00;100545.73;109634;1242;73224;-66
2023/07/29 01:53:43;;;;;;;9.20;5.20;;;;;;;16.34;100.00;100548.92;109510;1241;57711;-67
2023/07/29 01:56:12;;;;;;;11.50;5.40;;;;;;;16.40;100.00;100543.88;109634;1241;57741;-67
2023/07/29 01:58:50;;;;;;;8.40;5.60;;;;;;;16.49;100.00;100543.37;109689;1241;70928;-67
2023/07/29 02:01:19;;;;;;;9.20;5.30;;;;;;;16.50;100.00;100545.23;109630;1241;72559;-66
2023/07/29 02:03:54;;;;;;;8.80;5.30;;;;;;;16.48;100.00;100549.44;109681;1241;70853;-67
2023/07/29 02:06:23;;;;;;;8.20;5.00;;;;;;;16.45;100.00;100553.75;109643;1244;62680;-67
2023/07/29 02:08:54;;;;;;;10.80;5.40;;;;;;;16.47;100.00;100553.94;109697;1241;57784;-68
2023/07/29 02:11:27;;;;;;;7.40;5.40;;;;;;;16.56;100.00;100551.77;109538;1247;57288;-68
2023/07/29 02:13:57;;;;;;;9.50;5.70;;;;;;;16.77;100.00;100546.90;109657;1241;63402;-68
2023/07/29 02:16:26;;;;;;;10.00;5.70;;;;;;;16.88;100.00;100543.51;109458;1241;72597;-68
2023/07/29 02:18:54;;;;;;;8.40;5.70;;;;;;;16.98;100.00;100545.33;109637;1241;69878;-67
2023/07/29 02:21:24;;;;;;;7.10;5.40;;;;;;;17.02;100.00;100551.02;109598;1243;62884;-67
2023/07/29 02:23:53;;;;;;;9.60;5.20;;;;;;;16.96;100.00;100550.61;109632;1242;57752;-67
2023/07/29 02:26:22;;;;;;;8.60;5.80;;;;;;;16.81;100.00;100546.27;109513;1241;61072;-69
2023/07/29 02:28:51;;;;;;;8.80;5.50;;;;;;;16.65;100.00;100543.66;109521;1245;63208;-67
2023/07/29 02:31:25;;;;;;;17.10;5.30;;;;;;;16.49;100.00;100542.52;109683;1241;61421;-68
2023/07/29 02:33:53;;;;;;;8.10;5.50;;;;;;;16.69;100.00;100540.30;109492;1241;69800;-67
2023/07/29 02:36:22;;;;;;;8.40;5.00;;;;;;;16.79;100.00;100537.77;109589;1241;65237;-67
2023/07/29 02:38:51;;;;;;;10.10;5.70;;;;;;;16.72;100.00;100538.21;109675;1244;57700;-68
2023/07/29 02:41:20;;;;;;;8.20;5.50;;;;;;;16.58;100.00;100535.95;109541;1241;57539;-68
2023/07/29 02:43:50;;;;;;;7.90;5.30;;;;;;;16.44;100.00;100540.34;109395;1241;62825;-67
2023/07/29 02:46:19;;;;;;;11.30;6.10;;;;;;;16.26;100.00;100543.68;109382;1245;61463;-67
2023/07/29 02:48:49;;;;;;;10.70;5.70;;;;;;;16.19;100.00;100541.58;109541;1241;70144;-67
2023/07/29 02:51:18;;;;;;;7.20;5.20;;;;;;;16.35;100.00;100541.61;109318;1241;63589;-66
2023/07/29 02:53:47;;;;;;;8.30;5.50;;;;;;;16.37;100.00;100539.06;109413;1244;62633;-67
2023/07/29 02:56:15;;;;;;;9.90;5.50;;;;;;;16.27;100.00;100542.58;109432;1244;61358;-67
2023/07/29 02:58:44;;;;;;;10.10;6.10;;;;;;;16.14;100.00;100540.17;109526;1244;62556;-67
2023/07/29 03:01:13;;;;;;;11.30;6.40;;;;;;;15.98;100.00;100541.24;109423;1244;61505;-66
2023/07/29 03:03:42;;;;;;;14.30;7.80;;;;;;;15.88;100.00;100544.05;109362;1244;68797;-66
2023/07/29 03:06:15;;;;;;;18.40;13.70;;;;;;;15.88;100.00;100550.40;109458;1245;73514;-66
2023/07/29 03:08:44;;;;;;;20.90;17.40;;;;;;;15.91;100.00;100551.91;109444;1244;62037;-66
2023/07/29 03:11:15;;;;;;;28.10;24.90;;;;;;;15.89;100.00;100556.14;109406;1244;60108;-66
2023/07/29 03:13:44;;;;;;;40.70;34.00;;;;;;;15.82;100.00;100561.70;109511;1243;73978;-67
2023/07/29 03:16:16;;;;;;;34.00;27.10;;;;;;;15.80;100.00;100561.40;109438;1243;73153;-67
2023/07/29 03:18:51;;;;;;;28.80;23.60;;;;;;;15.79;100.00;100560.58;109541;1246;59657;-67
2023/07/29 03:21:20;;;;;;;26.60;23.60;;;;;;;15.89;100.00;100558.05;109542;1245;63251;-67
2023/07/29 03:23:49;;;;;;;43.30;34.90;;;;;;;16.05;100.00;100560.13;109444;1244;62037;-67
2023/07/29 03:26:17;;;;;;;27.50;22.90;;;;;;;16.02;100.00;100560.84;109624;1243;60632;-68
2023/07/29 03:28:46;;;;;;;19.20;14.00;;;;;;;15.96;100.00;100563.73;109496;1245;63195;-67
2023/07/29 03:31:15;;;;;;;13.20;8.80;;;;;;;15.88;100.00;100570.42;109603;1244;70449;-67
2023/07/29 03:33:44;;;;;;;12.00;9.10;;;;;;;15.99;100.00;100561.12;109487;1244;70142;-68
2023/07/29 03:36:12;;;;;;;14.00;7.70;;;;;;;15.98;100.00;100562.77;109544;1243;73430;-68
2023/07/29 03:38:41;;;;;;;12.20;8.00;;;;;;;16.10;100.00;100563.91;109477;1246;63119;-68
2023/07/29 03:41:11;;;;;;;14.10;7.50;;;;;;;16.32;100.00;100564.56;109536;1246;57698;-68
2023/07/29 03:43:39;;;;;;;10.10;7.00;;;;;;;16.31;100.00;100563.04;109370;1248;72447;-67
2023/07/29 03:46:08;;;;;;;18.20;9.00;;;;;;;16.29;100.00;100566.62;109538;1245;62168;-68
2023/07/29 03:48:40;;;;;;;15.10;8.40;;;;;;;16.28;100.00;100569.39;109639;1244;68371;-67
2023/07/29 03:51:09;;;;;;;13.90;10.00;;;;;;;16.27;100.00;100570.13;109517;1244;74243;-68
2023/07/29 03:53:37;;;;;;;12.40;8.90;;;;;;;16.29;100.00;100570.13;109480;1248;62060;-68
2023/07/29 03:56:07;;;;;;;14.10;10.60;;;;;;;16.33;100.00;100568.29;109514;1246;58318;-68
2023/07/29 03:58:36;;;;;;;15.80;10.60;;;;;;;16.44;100.00;100565.45;109511;1244;73591;-68
2023/07/29 04:01:04;;;;;;;14.60;10.50;;;;;;;16.65;100.00;100563.54;109360;1243;71750;-68
2023/07/29 04:03:34;;;;;;;16.80;11.50;;;;;;;16.82;100.00;100562.54;109493;1243;70254;-68
2023/07/29 04:06:03;;;;;;;13.90;9.80;;;;;;;16.93;100.00;100564.09;109427;1243;62871;-68
2023/07/29 04:08:32;;;;;;;22.90;9.50;;;;;;;17.02;100.00;100563.95;109405;1247;58171;-68
2023/07/29 04:11:01;;;;;;;15.80;11.70;;;;;;;17.10;100.00;100567.59;109608;1244;57167;-68
2023/07/29 04:13:30;;;;;;;16.90;12.80;;;;;;;17.20;100.00;100570.98;109499;1245;61944;-68
2023/07/29 04:15:59;;;;;;;19.20;13.10;;;;;;;17.31;100.00;100570.95;109622;1243;71465;-68
2023/07/29 04:18:28;;;;;;;13.30;10.30;;;;;;;17.40;100.00;100564.84;109491;1244;70885;-68
2023/07/29 04:20:57;;;;;;;14.40;8.90;;;;;;;17.52;100.00;100565.77;109470;1246;74192;-68
2023/07/29 04:23:26;;;;;;;15.20;7.90;;;;;;;17.61;100.00;100565.67;109621;1244;57718;-68
2023/07/29 04:25:55;;;;;;;14.10;7.70;;;;;;;17.72;100.00;100569.46;109507;1244;59065;-67
2023/07/29 04:28:23;;;;;;;13.50;7.60;;;;;;;17.95;100.00;100564.61;109466;1245;73492;-68
2023/07/29 04:30:52;;;;;;;10.80;7.00;;;;;;;18.06;100.00;100567.14;109584;1242;61156;-68
2023/07/29 04:33:21;;;;;;;12.80;7.30;;;;;;;18.22;100.00;100569.45;109599;1243;68945;-69
2023/07/29 04:35:49;;;;;;;13.00;7.10;;;;;;;18.42;100.00;100572.30;109446;1243;73662;-68
2023/07/29 04:38:18;;;;;;;14.40;7.80;;;;;;;18.54;100.00;100571.52;109399;1245;57686;-69
2023/07/29 04:40:49;;;;;;;15.30;6.70;;;;;;;18.69;100.00;100574.10;109612;1244;57728;-68
2023/07/29 04:43:18;;;;;;;11.20;6.50;;;;;;;18.81;100.00;100573.98;109336;1244;62988;-69
2023/07/29 04:45:48;;;;;;;9.40;5.90;;;;;;;18.92;100.00;100578.38;109423;1244;72776;-69
2023/07/29 04:48:16;;;;;;;9.40;6.00;;;;;;;19.03;100.00;100582.63;109534;1244;71017;-68
2023/07/29 04:50:45;;;;;;;11.80;5.70;;;;;;;19.13;100.00;100583.27;109406;1244;62968;-67
2023/07/29 04:53:14;;;;;;;14.60;6.10;;;;;;;19.26;100.00;100583.95;109541;1244;57132;-67
2023/07/29 04:55:43;;;;;;;9.70;6.40;;;;;;;19.40;100.00;100587.53;109500;1244;57684;-67
2023/07/29 04:58:12;;;;;;;15.10;6.20;;;;;;;19.57;100.00;100592.90;109415;1244;73517;-67
2023/07/29 05:00:41;;;;;;;9.60;5.40;;;;;;;19.73;100.00;100597.65;109408;1244;72058;-67
2023/07/29 05:03:09;;;;;;;16.20;5.50;;;;;;;19.84;100.00;100600.86;109406;1244;71053;-68
2023/07/29 05:05:38;;;;;;;12.00;4.90;;;;;;;19.91;100.00;100599.94;109594;1244;63867;-68
2023/07/29 05:08:07;;;;;;;15.00;5.30;;;;;;;19.96;100.00;100599.63;109567;1245;57677;-67
2023/07/29 05:10:36;;;;;;;11.50;5.50;;;;;;;20.01;100.00;100599.42;109445;1244;57109;-68
2023/07/29 05:13:05;;;;;;;10.70;5.50;;;;;;;20.11;100.00;100604.36;109502;1244;71538;-67
2023/07/29 05:15:33;;;;;;;14.40;6.20;;;;;;;20.24;100.00;100602.77;109484;1242;72533;-68
2023/07/29 05:18:02;;;;;;;11.00;5.60;;;;;;;20.36;100.00;100604.93;109482;1243;59620;-68
2023/07/29 05:20:31;;;;;;;10.50;5.10;;;;;;;20.50;100.00;100604.65;109395;1243;62334;-67
2023/07/29 05:23:00;;;;;;;11.80;5.30;;;;;;;20.64;100.00;100610.38;109412;1247;60271;-67
2023/07/29 05:25:29;;;;;;;9.00;4.40;;;;;;;20.75;100.00;100615.79;109460;1244;57131;-68
2023/07/29 05:27:58;;;;;;;9.40;4.50;;;;;;;20.82;100.00;100616.33;109376;1243;70786;-68
2023/07/29 05:30:30;;;;;;;7.90;4.50;;;;;;;20.94;100.00;100619.73;109383;1244;73276;-69
2023/07/29 05:33:08;;;;;;;;;;;;;;;21.01;100.00;100621.48;109316;1243;70627;-71
2023/07/29 05:35:39;;;;;;;10.80;4.60;;;;;;;21.13;100.00;100622.05;109232;1242;74524;-70
2023/07/29 05:38:08;;;;;;;9.40;5.60;;;;;;;21.26;99.65;100624.80;109331;1245;60023;-65
2023/07/29 05:40:37;;;;;;;7.90;4.30;;;;;;;21.38;99.35;100621.43;109488;1243;58068;-68
2023/07/29 05:43:06;;;;;;;7.60;3.90;;;;;;;21.56;98.62;100623.72;109250;1243;73634;-68
2023/07/29 05:45:40;;;;;;;7.30;4.10;;;;;;;21.65;99.34;100623.15;109341;1243;72911;-68
2023/07/29 05:48:09;;;;;;;8.10;4.40;;;;;;;21.77;97.65;100622.02;109339;1242;60185;-67
2023/07/29 05:50:38;;;;;;;15.20;5.30;;;;;;;21.92;97.61;100621.80;109377;1244;63121;-69
2023/07/29 05:53:07;;;;;;;10.50;4.40;;;;;;;22.08;96.04;100618.59;109351;1244;60211;-69
2023/07/29 05:55:35;;;;;;;7.70;4.40;;;;;;;22.22;94.51;100617.58;109423;1244;60713;-68
2023/07/29 05:58:04;;;;;;;6.20;3.20;;;;;;;22.35;91.13;100612.30;109433;1244;74501;-70
2023/07/29 06:00:33;;;;;;;6.00;2.90;;;;;;;22.51;88.30;100616.88;109466;1243;61722;-70
2023/07/29 06:03:02;;;;;;;6.50;3.10;;;;;;;22.66;86.19;100618.06;109474;1244;70738;-69
2023/07/29 06:05:31;;;;;;;6.60;3.50;;;;;;;22.81;86.22;100618.56;109453;1244;63877;-71
2023/07/29 06:08:00;;;;;;;4.40;3.10;;;;;;;22.99;85.59;100615.15;109465;1243;57134;-69
2023/07/29 06:10:29;;;;;;;4.90;3.20;;;;;;;23.13;83.72;100612.83;109457;1244;57707;-69
2023/07/29 06:12:58;;;;;;;5.90;3.20;;;;;;;23.23;83.01;100610.94;109458;1244;72703;-68
2023/07/29 06:15:26;;;;;;;4.90;3.30;;;;;;;23.33;81.51;100609.02;109613;1244;71835;-70
2023/07/29 06:17:55;;;;;;;4.20;2.80;;;;;;;23.42;81.20;100612.55;109496;1244;59339;-69
2023/07/29 06:20:25;;;;;;;4.30;3.10;;;;;;;23.61;80.66;100617.48;109472;1245;73427;-69
2023/07/29 06:22:54;;;;;;;5.70;3.00;;;;;;;23.74;78.96;100614.58;109430;1246;57726;-69
2023/07/29 06:25:23;;;;;;;7.40;3.40;;;;;;;23.86;79.39;100612.48;109429;1244;57134;-69
2023/07/29 06:27:52;;;;;;;6.80;2.90;;;;;;;24.02;78.38;100612.28;109542;1244;72434;-69
2023/07/29 06:30:20;;;;;;;7.40;3.10;;;;;;;24.18;78.82;100607.73;109489;1244;72724;-72
2023/07/29 06:32:49;;;;;;;5.00;3.20;;;;;;;24.31;77.56;100604.76;109465;1244;60303;-71
2023/07/29 06:35:18;;;;;;;5.80;3.40;;;;;;;24.39;76.13;100601.92;109400;1243;63431;-69
2023/07/29 06:37:47;;;;;;;6.10;3.60;;;;;;;24.52;74.90;100603.77;109474;1244;57645;-70
2023/07/29 06:40:16;;;;;;;7.60;4.20;;;;;;;24.59;72.54;100606.70;109593;1243;59903;-71
2023/07/29 06:42:44;;;;;;;5.10;3.40;;;;;;;24.57;73.78;100608.76;109511;1244;73147;-71
2023/07/29 06:45:15;;;;;;;10.40;4.10;;;;;;;24.73;74.13;100605.17;109454;1244;62048;-71
2023/07/29 06:47:45;;;;;;;5.80;3.40;;;;;;;24.80;72.87;100602.80;109541;1243;59281;-75
2023/07/29 06:50:14;;;;;;;5.90;3.50;;;;;;;24.98;74.06;100605.86;109455;1244;73901;-71
2023/07/29 06:52:42;;;;;;;7.30;3.40;;;;;;;25.19;73.64;100609.14;109483;1245;60907;-69
2023/07/29 06:55:11;;;;;;;6.60;3.20;;;;;;;25.29;71.03;100609.33;109630;1243;57390;-70
2023/07/29 06:57:40;;;;;;;4.50;3.40;;;;;;;25.48;70.44;100605.52;109639;1244;61962;-70
2023/07/29 07:00:10;;;;;;;6.90;3.70;;;;;;;25.74;71.13;100604.24;109442;1243;223814;-71
2023/07/29 07:02:38;;;;;;;7.10;4.10;;;;;;;25.98;71.29;100604.55;109483;1244;61311;-70
2023/07/29 07:05:07;;;;;;;14.80;4.20;;;;;;;25.93;70.27;100604.88;109617;1244;63217;-71
2023/07/29 07:07:36;;;;;;;6.30;3.10;;;;;;;26.13;68.15;100603.85;109485;1245;58030;-70
2023/07/29 07:10:05;;;;;;;4.50;2.90;;;;;;;26.20;66.30;100598.23;109645;1243;57665;-71
2023/07/29 07:12:34;;;;;;;6.70;3.30;;;;;;;26.29;66.96;100596.90;109636;1243;63784;-70
2023/07/29 07:15:03;;;;;;;5.40;3.20;;;;;;;26.45;67.16;100599.77;109610;1244;71921;-71
2023/07/29 07:17:32;;;;;;;4.70;2.80;;;;;;;26.53;67.58;100594.56;109618;1242;59364;-69
2023/07/29 07:20:01;;;;;;;5.50;3.30;;;;;;;26.62;66.09;100594.41;109515;1245;64869;-70
2023/07/29 07:22:30;;;;;;;7.40;3.10;;;;;;;26.82;64.98;100600.13;109635;1245;60565;-70
2023/07/29 07:24:58;;;;;;;4.20;2.80;;;;;;;26.58;63.29;100597.20;109635;1242;61589;-72
2023/07/29 07:27:27;;;;;;;5.40;3.30;;;;;;;26.83;61.82;100604.90;109666;1243;62815;-74
2023/07/29 07:29:56;;;;;;;7.20;3.40;;;;;;;26.86;62.61;100601.34;109432;1244;60985;-73
2023/07/29 07:32:26;;;;;;;4.40;2.90;;;;;;;26.91;62.93;100597.48;109434;1244;60887;-70
2023/07/29 07:34:55;;;;;;;10.00;3.90;;;;;;;27.14;62.27;100598.65;109583;1244;74327;-70
2023/07/29 07:37:23;;;;;;;7.40;3.00;;;;;;;27.29;62.66;100596.59;109464;1244;61422;-70
2023/07/29 07:39:52;;;;;;;3.10;2.20;;;;;;;27.51;57.57;100586.84;109598;1243;57192;-71
2023/07/29 07:43:30;;;;;;;5.40;3.10;;;;;;;27.60;56.08;100585.42;104305;1284;600753;-76
2023/07/29 07:46:29;;;;;;;3.80;2.80;;;;;;;27.43;57.22;100583.18;107381;1248;58996;-71
2023/07/29 07:49:00;;;;;;;5.30;3.00;;;;;;;27.53;57.20;100584.39;107228;1254;60684;-83
2023/07/29 07:51:29;;;;;;;6.30;3.10;;;;;;;27.56;55.22;100583.23;106990;1244;61543;-85
2023/07/29 07:53:59;;;;;;;5.30;2.90;;;;;;;27.45;56.53;100581.10;107204;1244;71420;-83
2023/07/29 07:56:28;;;;;;;4.30;3.00;;;;;;;27.41;55.39;100577.22;107135;1244;237216;-83
2023/07/29 07:58:56;;;;;;;4.30;2.40;;;;;;;27.43;55.08;100579.84;107483;1245;65332;-80
2023/07/29 08:01:26;;;;;;;3.50;2.70;;;;;;;27.39;54.21;100578.93;107448;1245;59046;-83
2023/07/29 08:03:55;;;;;;;6.20;3.30;;;;;;;27.13;55.49;100583.54;107332;1245;61201;-87
2023/07/29 08:06:24;;;;;;;5.30;3.30;;;;;;;27.05;56.59;100580.37;107449;1244;72261;-86
2023/07/29 08:08:53;;;;;;;5.80;3.60;;;;;;;27.09;57.22;100579.60;107559;1244;61866;-80
2023/07/29 08:11:22;;;;;;;4.20;3.00;;;;;;;27.20;56.99;100577.27;107267;1244;59412;-80
2023/07/29 08:13:51;;;;;;;11.20;3.20;;;;;;;27.31;57.24;100575.91;107497;1244;63566;-82
2023/07/29 08:16:23;;;;;;;6.40;3.00;;;;;;;27.42;57.22;100577.62;107337;1248;58059;-80
2023/07/29 08:18:52;;;;;;;7.00;3.10;;;;;;;27.49;56.74;100575.36;107326;1244;59522;-81
2023/07/29 08:21:21;;;;;;;4.70;2.90;;;;;;;27.59;55.98;100573.70;107462;1245;72759;-82
2023/07/29 08:23:49;;;;;;;5.50;3.10;;;;;;;27.61;55.67;100571.91;107473;1243;71741;-83
2023/07/29 08:26:18;;;;;;;5.60;3.30;;;;;;;27.81;54.60;100572.34;107445;1254;60153;-82
2023/07/29 08:28:49;;;;;;;4.80;3.10;;;;;;;28.09;54.79;100567.55;107490;1245;62983;-87
2023/07/29 08:31:22;;;;;;;6.80;3.20;;;;;;;28.03;53.97;100570.36;107446;1244;60128;-86
2023/07/29 08:33:51;;;;;;;6.40;3.30;;;;;;;28.21;54.11;100571.08;107446;1244;61119;-86
2023/07/29 08:36:19;;;;;;;5.60;3.30;;;;;;;28.32;54.50;100568.09;107374;1255;63382;-86
2023/07/29 08:38:48;;;;;;;4.10;3.50;;;;;;;28.47;55.43;100568.10;107456;1256;61933;-87
2023/07/29 08:41:27;;;;;;;4.50;3.00;;;;;;;28.62;54.90;100567.52;107672;1249;59082;-88
2023/07/29 08:44:22;;;;;;;3.40;2.90;;;;;;;28.78;53.79;100565.27;107329;1245;73073;-86
2023/07/29 08:46:53;;;;;;;6.10;3.00;;;;;;;28.92;53.38;100563.35;107356;1243;58928;-87
2023/07/29 08:49:23;;;;;;;7.40;3.70;;;;;;;29.00;52.43;100562.23;107616;1245;58134;-89
2023/07/29 08:51:54;;;;;;;4.90;3.00;;;;;;;29.08;50.24;100562.56;107459;1254;61924;-71
2023/07/29 08:54:24;;;;;;;5.10;3.20;;;;;;;28.94;49.64;100561.00;107069;1256;61424;-71
2023/07/29 08:56:53;;;;;;;5.00;3.20;;;;;;;28.77;50.50;100561.38;107297;1246;69642;-71
2023/07/29 08:59:22;;;;;;;5.20;3.10;;;;;;;28.79;51.91;100562.33;107315;1256;74154;-70
2023/07/29 09:01:55;;;;;;;4.50;3.30;;;;;;;28.93;51.12;100561.96;107056;1245;57572;-69
2023/07/29 09:04:25;;;;;;;3.40;2.80;;;;;;;29.12;50.86;100561.26;107101;1244;58962;-69
2023/07/29 09:06:55;;;;;;;4.30;3.00;;;;;;;29.35;50.17;100559.30;107159;1256;72103;-69
2023/07/29 09:09:25;;;;;;;6.20;2.80;;;;;;;29.27;49.18;100555.65;107106;1246;61854;-70
2023/07/29 09:11:54;;;;;;;5.40;3.20;;;;;;;29.24;50.28;100556.41;107148;1244;59755;-69
2023/07/29 09:14:24;;;;;;;4.20;2.60;;;;;;;29.29;49.90;100552.95;107162;1244;63983;-70
2023/07/29 09:16:53;;;;;;;5.20;2.90;;;;;;;29.33;49.22;100549.58;107134;1244;57959;-70
2023/07/29 09:19:28;;;;;;;4.70;2.90;;;;;;;29.18;49.74;100543.80;107227;1244;59029;-70
2023/07/29 09:21:57;;;;;;;4.30;2.80;;;;;;;29.36;48.60;100545.45;107194;1244;65001;-68
2023/07/29 09:24:29;;;;;;;5.10;2.40;;;;;;;29.27;48.13;100543.33;107127;1245;72378;-68
2023/07/29 09:26:58;;;;;;;5.20;3.20;;;;;;;29.14;48.57;100546.04;107133;1256;59687;-69
2023/07/29 09:29:28;;;;;;;4.20;3.10;;;;;;;29.02;49.96;100545.73;107125;1256;62419;-68
2023/07/29 09:32:22;;;;;;;4.50;3.00;;;;;;;29.06;50.66;100540.11;107025;1253;60753;-71
2023/07/29 09:34:52;;;;;;;6.50;3.20;;;;;;;29.14;50.54;100542.48;107017;1246;59152;-69
2023/07/29 09:37:22;;;;;;;5.10;3.10;;;;;;;29.34;49.92;100541.37;107012;1245;73059;-70
2023/07/29 09:39:51;;;;;;;4.00;3.00;;;;;;;29.41;49.05;100541.52;107145;1245;71984;-71
2023/07/29 09:42:22;;;;;;;4.40;2.80;;;;;;;29.36;49.06;100545.98;107358;1256;59532;-69
2023/07/29 09:44:51;;;;;;;5.20;2.80;;;;;;;29.30;49.27;100539.20;107244;1245;74115;-71
2023/07/29 09:47:25;;;;;;;4.10;3.10;;;;;;;29.39;49.24;100541.37;107383;1245;61911;-72
2023/07/29 09:49:54;;;;;;;4.00;3.00;;;;;;;29.52;48.78;100542.06;107059;1249;59125;-71
2023/07/29 09:52:24;;;;;;;5.50;2.70;;;;;;;29.54;48.81;100548.13;107222;1244;71926;-70
2023/07/29 09:54:54;;;;;;;3.30;2.70;;;;;;;29.33;49.46;100547.70;107331;1251;61617;-70
2023/07/29 09:57:24;;;;;;;4.30;3.10;;;;;;;29.07;50.01;100546.41;107157;1248;59773;-72
2023/07/29 09:59:57;;;;;;;4.60;3.30;;;;;;;28.89;50.69;100541.11;107280;1244;73345;-70
2023/07/29 10:02:28;;;;;;;4.00;3.00;;;;;;;28.94;50.92;100545.55;106944;1243;62514;-69
2023/07/29 10:04:59;;;;;;;5.20;2.50;;;;;;;28.89;50.71;100539.60;107355;1244;60602;-69
2023/07/29 10:07:28;;;;;;;7.20;2.90;;;;;;;28.88;50.76;100538.69;107205;1246;62895;-71
2023/07/29 10:09:59;;;;;;;4.10;2.80;;;;;;;28.95;50.31;100534.85;107373;1256;61748;-71
2023/07/29 10:12:28;;;;;;;4.60;2.80;;;;;;;29.17;50.11;100537.60;107312;1244;70400;-69
2023/07/29 10:15:06;;;;;;;6.40;3.10;;;;;;;29.11;49.67;100532.08;107197;1243;64583;-69
2023/07/29 10:17:39;;;;;;;4.20;2.80;;;;;;;29.18;50.19;100535.14;107176;1246;59412;-69
2023/07/29 10:20:10;;;;;;;6.20;2.70;;;;;;;29.39;49.26;100534.42;107045;1248;59139;-70
2023/07/29 10:22:46;;;;;;;3.60;2.30;;;;;;;29.58;48.27;100535.62;107057;1255;61961;-70
2023/07/29 10:25:42;;;;;;;4.30;2.60;;;;;;;29.63;47.74;100537.29;107015;1244;70682;-70
2023/07/29 10:28:12;;;;;;;4.50;3.00;;;;;;;29.65;48.14;100536.23;107122;1256;60582;-71
2023/07/29 10:30:42;;;;;;;5.60;2.70;;;;;;;29.77;48.98;100524.04;107074;1248;73238;-71
2023/07/29 10:33:10;;;;;;;3.60;2.40;;;;;;;30.05;48.47;100521.34;107133;1243;58016;-69
2023/07/29 10:35:41;;;;;;;3.30;2.70;;;;;;;30.32;46.85;100514.59;107204;1256;61955;-69
2023/07/29 10:38:10;;;;;;;5.30;2.50;;;;;;;30.29;47.71;100519.38;107251;1245;73061;-70
2023/07/29 10:40:50;;;;;;;4.50;2.30;;;;;;;30.78;46.10;100514.02;107171;1246;62641;-69
2023/07/29 10:43:48;;;;;;;3.60;2.70;;;;;;;31.02;45.52;100513.54;107311;1251;61691;-69
2023/07/29 10:46:22;;;;;;;4.70;2.70;;;;;;;31.19;44.99;100518.63;107079;1255;63222;-70
2023/07/29 10:48:53;;;;;;;8.30;3.00;;;;;;;31.22;44.98;100518.12;107100;1247;59039;-71
2023/07/29 10:51:29;;;;;;;5.00;2.50;;;;;;;31.28;45.31;100518.36;107208;1244;57442;-72
2023/07/29 10:54:04;;;;;;;4.20;2.40;;;;;;;31.37;45.36;100514.74;107122;1245;62045;-69
2023/07/29 10:56:35;;;;;;;3.60;2.80;;;;;;;31.65;44.81;100519.14;107249;1246;61408;-69
2023/07/29 10:59:33;;;;;;;6.90;3.70;;;;;;;31.69;43.93;100515.30;107373;1244;69688;-70
2023/07/29 11:02:15;;;;;;;4.40;3.00;;;;;;;31.99;44.11;100514.46;107214;1244;63449;-72
2023/07/29 11:04:51;;;;;;;5.50;2.50;;;;;;;32.27;42.95;100512.42;107284;1244;58110;-70
2023/07/29 11:07:23;;;;;;;4.20;3.10;;;;;;;32.58;42.16;100504.89;109468;1242;57649;-70
2023/07/29 11:09:59;;;;;;;;;;;;;;;32.88;41.56;100500.74;109387;1244;63845;-69
2023/07/29 11:12:42;;;;;;;4.10;2.20;;;;;;;33.10;40.12;100500.21;109279;1242;62302;-70
2023/07/29 11:15:11;;;;;;;3.90;2.50;;;;;;;33.37;38.77;100496.23;109391;1244;70456;-70
2023/07/29 11:17:51;;;;;;;3.80;2.50;;;;;;;33.00;40.45;100491.02;109450;1244;73392;-69
2023/07/29 11:20:27;;;;;;;3.70;2.50;;;;;;;33.18;40.70;100491.68;109450;1242;61630;-69
2023/07/29 11:22:59;;;;;;;3.40;2.60;;;;;;;33.24;40.56;100489.21;109362;1244;59855;-69
2023/07/29 11:25:30;;;;;;;6.70;2.40;;;;;;;33.28;40.31;100485.23;109269;1244;64590;-69
2023/07/29 11:27:59;;;;;;;4.10;2.60;;;;;;;33.27;40.54;100490.08;109155;1244;72280;-70
2023/07/29 11:30:34;;;;;;;3.80;2.60;;;;;;;33.61;40.12;100484.27;109238;1245;62091;-69